Forside
METAR-TAF:

METAR-TAF

Lufthavne :

Salt Lake City International Airport

Salt Lake City, Utah, USA

Breddekreds: 40-46-41N, længdekreds: 111-58-10W, højde: 1288 m

Aktuelle vejr

Denne rapport blev lavet for 58 minutter siden, kl. 08:54 UTC
Vind 10 kt fra østsydøst
Temperatur 7°C
Fugtighed 33%
Tryk 1022 hPa
Sigt: 16.1 km
Nogle få skyer i en højde af 20000 ft

METAR: KSLC 200854Z 12010KT 10SM FEW200 07/M08 A3019 RMK AO2 SLP205 T00721078 55002

Tid: 03:52 (09:52 UTC)

Vejrudsigter

Denne rapport blev lavet for 50 minutter siden, kl. 09:02 UTC
Foreløbig gælder fra 20 på 09 UTC til 21 på 12 UTC
Vind 8 kt fra sydøst
Sigt: 10 km
Nogle få skyer i en højde af 20000 ft
Fra 20 på 1800 UTC
Vind 11 kt fra syd
Sigt: 10 km
Spredte skyer i en højde af 15000 ft
Fra 21 på 0300 UTC
Vind 8 kt fra sydsydøst
Sigt: 10 km
Spredte skyer i en højde af 10000 ft
Brudte skyer i en højde af 15000 ft

TAF: KSLC 200902Z 2009/2112 13008KT P6SM FEW200 FM201800 18011KT P6SM SCT150 FM210300 16008KT P6SM SCT100 BKN150

Vejrobservationer og prognoser fra mere end 4000 lufthavne (METAR og TAF).

De gule og røde prikker repræsenterer de meteorologiske stationer.

Flyt musen over at se navnet på stationen.

Så klik over at se vejr observationer og prognoser.

At skifte det kort: Klik på de grønne knapper med et sort kors for at zoome ind; på den grønne knap med en bindestreg for at zoome ud; eller på de grønne pile for tilstødende kort.


METAR-TAF: